Time;durP1;ratioP1;P1;durP2;ratioP2;P2;SDS_P1;SDS_P2;PMS_P1;PMS_P2;Temp;Humidity;BMP_temperature;BMP_pressure;BME280_temperature;BME280_humidity;BME280_pressure;Samples;Min_cycle;Max_cycle;Signal;HPM_P1;HPM_P2
2022/03/16 00:01:39;;;;;;;20.95;14.68;;;7.70;71.50;;;;;;5049366;28;20107;-63
2022/03/16 00:04:04;;;;;;;23.70;18.23;;;7.60;71.50;;;;;;5051060;28;20112;-65
2022/03/16 00:06:30;;;;;;;21.65;17.33;;;7.60;71.60;;;;;;5051202;28;20123;-62
2022/03/16 00:08:56;;;;;;;22.05;16.95;;;7.60;71.60;;;;;;5050975;28;20025;-63
2022/03/16 00:11:21;;;;;;;23.27;17.33;;;7.50;71.50;;;;;;5050491;28;20036;-62
2022/03/16 00:13:47;;;;;;;22.85;16.75;;;7.50;71.60;;;;;;5050448;28;20025;-63
2022/03/16 00:16:13;;;;;;;21.42;17.70;;;7.50;71.60;;;;;;5051243;28;20469;-64
2022/03/16 00:18:38;;;;;;;22.13;16.80;;;7.40;71.70;;;;;;5051056;28;20037;-63
2022/03/16 00:21:04;;;;;;;22.95;17.60;;;7.40;71.80;;;;;;5050272;28;20037;-64
2022/03/16 00:23:30;;;;;;;23.02;17.17;;;7.40;71.90;;;;;;5049620;28;20049;-64
2022/03/16 00:25:55;;;;;;;20.67;17.45;;;7.30;71.70;;;;;;5051558;28;20056;-64
2022/03/16 00:28:21;;;;;;;27.08;19.42;;;7.30;71.70;;;;;;5049773;28;20453;-64
2022/03/16 00:30:47;;;;;;;25.13;20.13;;;7.30;71.90;;;;;;5050292;28;20127;-64
2022/03/16 00:33:12;;;;;;;23.60;19.38;;;7.30;72.10;;;;;;5050571;28;20108;-62
2022/03/16 00:35:38;;;;;;;25.63;19.13;;;7.30;72.10;;;;;;5050609;28;20056;-62
2022/03/16 00:38:04;;;;;;;26.33;19.83;;;7.20;71.90;;;;;;5050491;28;20427;-62
2022/03/16 00:40:32;;;;;;;25.98;19.30;;;7.20;71.90;;;;;;5049984;28;20482;-62
2022/03/16 00:42:58;;;;;;;26.63;19.38;;;7.20;72.10;;;;;;5049637;28;20032;-62
2022/03/16 00:45:24;;;;;;;26.88;20.95;;;7.20;72.30;;;;;;5050894;28;20037;-62
2022/03/16 00:47:50;;;;;;;30.90;20.85;;;7.20;72.20;;;;;;5050210;28;20384;-62
2022/03/16 00:50:16;;;;;;;28.85;22.33;;;7.10;72.30;;;;;;5050019;28;20108;-62
2022/03/16 00:52:42;;;;;;;29.50;20.95;;;7.10;72.40;;;;;;5041388;28;20591;-64
2022/03/16 00:55:08;;;;;;;26.48;20.35;;;7.10;72.60;;;;;;5049294;28;20029;-64
2022/03/16 00:57:34;;;;;;;25.95;20.05;;;7.10;72.70;;;;;;5048591;28;20044;-62
2022/03/16 01:00:00;;;;;;;28.08;20.35;;;7.00;72.70;;;;;;5049639;28;20091;-62
2022/03/16 01:02:26;;;;;;;24.27;19.30;;;7.10;72.60;;;;;;5050090;28;20068;-62
2022/03/16 01:04:51;;;;;;;24.00;18.13;;;7.00;72.60;;;;;;5048758;28;20044;-64
2022/03/16 01:07:17;;;;;;;26.40;18.92;;;7.00;72.50;;;;;;5050111;28;20039;-62
2022/03/16 01:09:43;;;;;;;25.98;19.83;;;7.00;72.40;;;;;;5049630;28;20032;-63
2022/03/16 01:12:09;;;;;;;27.20;21.75;;;7.00;72.50;;;;;;5048188;28;20029;-63
2022/03/16 01:14:35;;;;;;;26.10;20.50;;;6.90;72.40;;;;;;5050109;28;20760;-62
2022/03/16 01:17:00;;;;;;;26.25;20.48;;;6.90;72.50;;;;;;5048091;28;20035;-62
2022/03/16 01:19:26;;;;;;;27.40;21.00;;;6.90;72.40;;;;;;5050199;28;20033;-62
2022/03/16 01:21:53;;;;;;;26.58;21.52;;;6.90;72.50;;;;;;5049117;28;20391;-64
2022/03/16 01:24:19;;;;;;;29.35;22.55;;;6.80;72.70;;;;;;5048501;28;20103;-64
2022/03/16 01:26:45;;;;;;;29.58;22.80;;;6.80;72.80;;;;;;5048861;28;20354;-64
2022/03/16 01:29:11;;;;;;;31.33;24.10;;;6.80;72.70;;;;;;5049579;28;20047;-64
2022/03/16 01:31:37;;;;;;;31.48;23.63;;;6.80;72.70;;;;;;5049230;28;20104;-64
2022/03/16 01:34:03;;;;;;;31.13;24.13;;;6.70;72.80;;;;;;5049566;28;20025;-65
2022/03/16 01:36:29;;;;;;;28.42;21.95;;;6.70;72.90;;;;;;5049019;28;20032;-64
2022/03/16 01:38:55;;;;;;;31.83;21.13;;;6.70;73.00;;;;;;5049493;28;20033;-63
2022/03/16 01:41:20;;;;;;;30.85;22.98;;;6.70;73.00;;;;;;5049172;28;20041;-62
2022/03/16 01:43:46;;;;;;;32.92;23.92;;;6.70;73.10;;;;;;5047461;28;20086;-62
2022/03/16 01:46:12;;;;;;;31.55;22.85;;;6.60;73.20;;;;;;5034795;28;20033;-62
2022/03/16 01:48:38;;;;;;;31.55;22.98;;;6.60;73.30;;;;;;5048712;28;20453;-63
2022/03/16 01:51:04;;;;;;;31.33;23.27;;;6.60;73.40;;;;;;5048842;28;20009;-63
2022/03/16 01:53:30;;;;;;;32.25;23.90;;;6.60;73.40;;;;;;5049485;28;20029;-62
2022/03/16 01:55:56;;;;;;;33.53;24.33;;;6.60;73.40;;;;;;5049006;28;20115;-62
2022/03/16 01:58:21;;;;;;;31.60;23.27;;;6.60;73.50;;;;;;5049030;28;20068;-64
2022/03/16 02:00:47;;;;;;;30.73;24.58;;;6.50;73.50;;;;;;5048334;28;20049;-64
2022/03/16 02:03:13;;;;;;;31.42;23.20;;;6.50;73.60;;;;;;5049350;28;20037;-62
2022/03/16 02:05:39;;;;;;;31.48;23.17;;;6.50;73.80;;;;;;5048082;28;20132;-63
2022/03/16 02:08:08;;;;;;;31.33;23.85;;;6.50;73.90;;;;;;5048578;28;20037;-63
2022/03/16 02:10:34;;;;;;;41.97;25.27;;;6.50;73.90;;;;;;5047334;28;20118;-64
2022/03/16 02:13:00;;;;;;;31.55;24.25;;;6.50;74.00;;;;;;5048394;28;20631;-64
2022/03/16 02:15:26;;;;;;;33.30;24.23;;;6.40;73.90;;;;;;5048969;28;20127;-64
2022/03/16 02:17:55;;;;;;;31.05;24.35;;;6.40;74.00;;;;;;5048672;28;20021;-61
2022/03/16 02:20:21;;;;;;;31.15;23.15;;;6.40;74.20;;;;;;5048779;28;20124;-66
2022/03/16 02:23:00;;;;;;;33.05;24.25;;;6.40;74.30;;;;;;5048579;28;20123;-65
2022/03/16 02:25:27;;;;;;;32.83;24.67;;;6.40;74.40;;;;;;5048985;28;20037;-64
2022/03/16 02:27:54;;;;;;;35.13;25.17;;;6.30;74.40;;;;;;5047373;28;20036;-65
2022/03/16 02:30:21;;;;;;;31.75;24.02;;;6.30;74.70;;;;;;5047546;28;20368;-61
2022/03/16 02:32:47;;;;;;;35.50;24.77;;;6.30;74.80;;;;;;5048671;28;20025;-62
2022/03/16 02:35:13;;;;;;;26.60;18.92;;;6.30;74.90;;;;;;5048674;28;20064;-62
2022/03/16 02:37:39;;;;;;;158.52;45.92;;;6.30;75.00;;;;;;5048104;28;20036;-63
2022/03/16 02:40:07;;;;;;;30.63;22.27;;;6.30;75.00;;;;;;5047873;28;20037;-62
2022/03/16 02:42:34;;;;;;;31.95;21.92;;;6.30;75.00;;;;;;5047966;28;20029;-62
2022/03/16 02:44:59;;;;;;;25.70;15.45;;;6.20;75.70;;;;;;5048529;28;20383;-62
2022/03/16 02:47:27;;;;;;;22.00;12.27;;;6.20;75.10;;;;;;5047030;28;20025;-62
2022/03/16 02:49:54;;;;;;;23.67;13.85;;;6.20;75.10;;;;;;5048254;28;20064;-62
2022/03/16 02:52:21;;;;;;;25.23;14.65;;;6.20;75.10;;;;;;5046685;28;20040;-62
2022/03/16 02:54:47;;;;;;;22.70;14.75;;;6.20;75.30;;;;;;5048474;28;20376;-64
2022/03/16 02:57:16;;;;;;;26.38;16.25;;;6.20;75.40;;;;;;5047885;28;20036;-62
2022/03/16 02:59:42;;;;;;;25.33;15.32;;;6.20;75.40;;;;;;5047291;28;20411;-62
2022/03/16 03:02:08;;;;;;;24.30;13.02;;;6.10;75.40;;;;;;5048576;28;20414;-62
2022/03/16 03:04:34;;;;;;;22.13;13.90;;;6.10;75.40;;;;;;5048386;28;20116;-62
2022/03/16 03:07:00;;;;;;;21.48;12.27;;;6.10;75.20;;;;;;5048121;28;20124;-64
2022/03/16 03:09:25;;;;;;;22.65;13.95;;;6.00;75.00;;;;;;5048526;28;20124;-66
2022/03/16 03:11:52;;;;;;;28.45;15.45;;;6.10;75.00;;;;;;5046259;28;20029;-64
2022/03/16 03:14:18;;;;;;;30.00;16.17;;;6.10;75.00;;;;;;5048204;28;20025;-64
2022/03/16 03:16:44;;;;;;;25.20;16.73;;;6.00;75.10;;;;;;5048140;28;20040;-62
2022/03/16 03:19:09;;;;;;;25.23;15.95;;;6.00;75.20;;;;;;5048187;28;20086;-62
2022/03/16 03:21:35;;;;;;;21.58;13.13;;;6.00;75.10;;;;;;5047903;28;20439;-64
2022/03/16 03:24:01;;;;;;;22.42;13.55;;;6.00;75.20;;;;;;5046856;28;20029;-62
2022/03/16 03:26:26;;;;;;;24.83;14.70;;;6.00;75.30;;;;;;5047504;28;20039;-64
2022/03/16 03:28:52;;;;;;;22.33;15.18;;;6.00;75.50;;;;;;5047875;28;20032;-64
2022/03/16 03:31:18;;;;;;;23.38;15.13;;;6.00;75.60;;;;;;5050413;28;20049;-64
2022/03/16 03:33:43;;;;;;;23.10;15.70;;;6.00;75.60;;;;;;5055698;28;20021;-64
2022/03/16 03:36:09;;;;;;;24.65;15.45;;;6.00;75.70;;;;;;5031720;28;20029;-64
2022/03/16 03:38:34;;;;;;;23.95;14.35;;;6.00;75.70;;;;;;5033618;28;20029;-64
2022/03/16 03:41:00;;;;;;;18.95;11.23;;;6.00;75.80;;;;;;5073335;28;20494;-62
2022/03/16 03:43:26;;;;;;;20.42;14.00;;;6.00;75.90;;;;;;5049505;28;20475;-62
2022/03/16 03:45:51;;;;;;;24.00;15.15;;;6.00;76.10;;;;;;5051909;28;20029;-64
2022/03/16 03:48:17;;;;;;;25.23;14.38;;;6.00;76.10;;;;;;5050599;28;20033;-63
2022/03/16 03:50:43;;;;;;;23.25;14.38;;;6.00;76.10;;;;;;5049962;28;20033;-63
2022/03/16 03:53:08;;;;;;;23.48;13.82;;;6.00;76.20;;;;;;5052383;28;20107;-64
2022/03/16 03:55:34;;;;;;;21.58;14.43;;;6.00;76.50;;;;;;5050665;28;20028;-64
2022/03/16 03:58:00;;;;;;;23.73;14.73;;;6.00;76.70;;;;;;5050859;28;20520;-64
2022/03/16 04:00:25;;;;;;;23.85;15.98;;;6.00;76.80;;;;;;5050559;28;20508;-62
2022/03/16 04:02:51;;;;;;;23.35;14.18;;;6.00;77.00;;;;;;5051822;28;20502;-62
2022/03/16 04:05:17;;;;;;;24.75;14.75;;;6.00;77.00;;;;;;5051260;28;20025;-62
2022/03/16 04:07:43;;;;;;;21.70;13.63;;;6.00;77.10;;;;;;5049819;28;20033;-62
2022/03/16 04:10:10;;;;;;;22.73;14.90;;;6.00;77.20;;;;;;5051014;28;20025;-62
2022/03/16 04:12:36;;;;;;;24.10;14.65;;;6.00;77.30;;;;;;5050787;28;20017;-65
2022/03/16 04:15:03;;;;;;;20.17;13.25;;;6.00;77.30;;;;;;5049903;28;20071;-62
2022/03/16 04:17:28;;;;;;;22.33;13.88;;;6.00;77.40;;;;;;5051386;28;20037;-64
2022/03/16 04:19:54;;;;;;;20.23;13.20;;;6.00;77.50;;;;;;5050601;28;20053;-64
2022/03/16 04:22:20;;;;;;;21.90;13.80;;;6.00;77.70;;;;;;5051037;28;21655;-63
2022/03/16 04:24:45;;;;;;;28.05;15.90;;;6.10;77.90;;;;;;5050930;28;20119;-63
2022/03/16 04:27:11;;;;;;;22.70;13.73;;;6.10;78.00;;;;;;5050035;28;20043;-64
2022/03/16 04:29:37;;;;;;;21.35;10.88;;;6.10;78.50;;;;;;5050260;28;20060;-66
2022/03/16 04:32:03;;;;;;;20.17;11.43;;;6.10;78.60;;;;;;5050777;28;20108;-66
2022/03/16 04:34:29;;;;;;;16.38;9.52;;;6.10;78.90;;;;;;5050923;28;20456;-65
2022/03/16 04:36:55;;;;;;;18.80;10.73;;;6.10;78.90;;;;;;5047696;28;20137;-62
2022/03/16 04:39:20;;;;;;;21.88;10.38;;;6.10;79.10;;;;;;5043883;28;20504;-64
2022/03/16 04:41:46;;;;;;;18.52;10.75;;;6.20;79.70;;;;;;5048054;28;20111;-62
2022/03/16 04:44:12;;;;;;;17.83;9.40;;;6.20;79.90;;;;;;5049463;28;20456;-62
2022/03/16 04:46:38;;;;;;;16.75;9.93;;;6.20;80.00;;;;;;5042636;28;20037;-62
2022/03/16 04:49:03;;;;;;;21.80;10.00;;;6.20;80.30;;;;;;5049115;28;20504;-62
2022/03/16 04:51:29;;;;;;;16.98;9.13;;;6.20;80.30;;;;;;5047836;28;20132;-63
2022/03/16 04:53:54;;;;;;;16.20;8.45;;;6.20;80.30;;;;;;5049796;28;20079;-62
2022/03/16 04:56:20;;;;;;;17.25;9.10;;;6.20;80.40;;;;;;5049400;28;20107;-62
2022/03/16 04:58:46;;;;;;;17.02;10.52;;;6.20;80.50;;;;;;5048832;28;20033;-62
2022/03/16 05:01:12;;;;;;;21.05;10.40;;;6.20;80.70;;;;;;5047248;28;20048;-64
2022/03/16 05:03:37;;;;;;;19.38;10.52;;;6.20;80.60;;;;;;5047874;28;20044;-64
2022/03/16 05:06:04;;;;;;;18.83;9.77;;;6.20;80.70;;;;;;5054760;28;20042;-64
2022/03/16 05:08:35;;;;;;;17.02;10.07;;;6.10;80.60;;;;;;5053845;28;20033;-64
2022/03/16 05:11:02;;;;;;;15.48;8.95;;;6.10;80.60;;;;;;5049402;28;20032;-62
2022/03/16 05:13:28;;;;;;;18.63;9.95;;;6.10;80.60;;;;;;5048797;28;20033;-64
2022/03/16 05:15:53;;;;;;;19.88;10.77;;;6.10;80.80;;;;;;5050990;28;20075;-65
2022/03/16 05:18:19;;;;;;;16.77;9.90;;;6.10;81.00;;;;;;5057999;28;20028;-64
2022/03/16 05:20:45;;;;;;;19.33;10.35;;;6.10;81.00;;;;;;5047794;28;20025;-64
2022/03/16 05:23:11;;;;;;;17.63;11.05;;;6.00;81.00;;;;;;5048165;28;20558;-62
2022/03/16 05:25:37;;;;;;;16.23;9.88;;;6.00;81.10;;;;;;5049074;28;20120;-63
2022/03/16 05:28:03;;;;;;;16.85;10.15;;;6.00;81.10;;;;;;5049053;28;20029;-63
2022/03/16 05:30:29;;;;;;;20.65;11.63;;;6.00;81.00;;;;;;5045366;28;20148;-63
2022/03/16 05:32:57;;;;;;;24.23;9.75;;;6.00;81.10;;;;;;5045869;28;20557;-63
2022/03/16 05:35:23;;;;;;;18.70;11.77;;;6.00;81.10;;;;;;5049632;28;20021;-64
2022/03/16 05:37:49;;;;;;;17.27;10.60;;;6.00;81.10;;;;;;5048391;28;20051;-64
2022/03/16 05:40:14;;;;;;;20.92;12.65;;;6.00;81.00;;;;;;5048284;28;20037;-64
2022/03/16 05:42:40;;;;;;;20.67;12.10;;;6.00;81.10;;;;;;5047602;28;20039;-64
2022/03/16 05:45:07;;;;;;;20.17;11.45;;;6.00;81.10;;;;;;5059180;28;20040;-63
2022/03/16 05:47:33;;;;;;;19.63;12.07;;;6.00;81.10;;;;;;5048531;28;20028;-64
2022/03/16 05:49:59;;;;;;;22.67;12.10;;;6.00;81.10;;;;;;5051727;28;20029;-63
2022/03/16 05:52:25;;;;;;;20.88;12.07;;;6.00;81.30;;;;;;5046580;28;20068;-63
2022/03/16 05:54:53;;;;;;;21.77;12.52;;;5.90;81.90;;;;;;5051155;28;20529;-62
2022/03/16 05:57:19;;;;;;;24.17;14.40;;;5.90;81.70;;;;;;5048714;28;20056;-63
2022/03/16 05:59:46;;;;;;;20.67;13.70;;;5.90;82.00;;;;;;5045917;28;20044;-64
2022/03/16 06:02:12;;;;;;;22.48;13.32;;;5.90;81.90;;;;;;5052341;28;20112;-63
2022/03/16 06:04:39;;;;;;;21.52;14.05;;;5.90;81.90;;;;;;5049343;28;20438;-63
2022/03/16 06:07:05;;;;;;;21.38;13.45;;;5.90;82.20;;;;;;5053961;28;20075;-64
2022/03/16 06:09:31;;;;;;;21.92;14.70;;;5.90;82.20;;;;;;5055382;28;20536;-63
2022/03/16 06:11:58;;;;;;;21.83;12.43;;;6.00;82.40;;;;;;5059954;28;20494;-62
2022/03/16 06:14:24;;;;;;;23.55;13.30;;;5.90;82.30;;;;;;5048436;28;20048;-62
2022/03/16 06:16:52;;;;;;;24.58;13.00;;;5.90;82.20;;;;;;5053513;28;20122;-63
2022/03/16 06:19:20;;;;;;;28.13;13.32;;;5.90;82.20;;;;;;5058073;28;20028;-63
2022/03/16 06:21:47;;;;;;;20.50;11.45;;;5.90;82.20;;;;;;5056822;28;20112;-63
2022/03/16 06:24:13;;;;;;;22.63;12.35;;;6.00;82.20;;;;;;5055996;28;20029;-62
2022/03/16 06:26:39;;;;;;;23.20;12.38;;;5.90;82.10;;;;;;5054328;28;20530;-62
2022/03/16 06:29:05;;;;;;;23.08;13.20;;;5.90;82.10;;;;;;5048214;28;20044;-62
2022/03/16 06:31:31;;;;;;;24.30;12.25;;;5.90;82.10;;;;;;5047554;28;20033;-62
2022/03/16 06:33:57;;;;;;;22.05;13.98;;;6.00;82.20;;;;;;5051675;28;20162;-64
2022/03/16 06:36:23;;;;;;;22.08;13.48;;;6.00;82.10;;;;;;5062106;28;20036;-62
2022/03/16 06:38:48;;;;;;;23.45;13.60;;;6.00;82.10;;;;;;5049473;28;20029;-62
2022/03/16 06:41:14;;;;;;;26.55;15.82;;;6.00;82.30;;;;;;5054020;28;20072;-62
2022/03/16 06:43:40;;;;;;;22.58;12.02;;;6.00;82.30;;;;;;5044291;28;20029;-62
2022/03/16 06:46:06;;;;;;;23.38;15.20;;;6.00;82.40;;;;;;5053622;28;20110;-63
2022/03/16 06:48:32;;;;;;;26.75;15.82;;;6.00;82.40;;;;;;5034216;28;20475;-63
2022/03/16 06:50:58;;;;;;;36.30;19.58;;;6.10;82.60;;;;;;5043411;28;20025;-64
2022/03/16 06:53:24;;;;;;;30.35;20.10;;;6.10;82.90;;;;;;5053899;28;20378;-63
2022/03/16 06:55:50;;;;;;;32.70;20.85;;;6.10;83.00;;;;;;5053751;28;20600;-64
2022/03/16 06:58:16;;;;;;;37.92;19.20;;;6.10;83.10;;;;;;5047625;28;20123;-64
2022/03/16 07:00:42;;;;;;;32.08;19.10;;;6.20;83.10;;;;;;5046701;28;20126;-64
2022/03/16 07:03:08;;;;;;;31.23;19.20;;;6.20;83.20;;;;;;5048962;28;20040;-63
2022/03/16 07:05:39;;;;;;;30.38;17.38;;;6.20;83.20;;;;;;5047159;28;20028;-63
2022/03/16 07:08:07;;;;;;;24.83;13.27;;;6.20;83.30;;;;;;5044560;28;20029;-63
2022/03/16 07:10:35;;;;;;;28.20;14.75;;;6.30;83.20;;;;;;5044781;28;20036;-63
2022/03/16 07:13:01;;;;;;;24.02;15.00;;;6.30;83.20;;;;;;5047182;28;20561;-63
2022/03/16 07:15:28;;;;;;;27.17;16.02;;;6.30;83.20;;;;;;5052025;28;20032;-64
2022/03/16 07:17:54;;;;;;;23.17;16.52;;;6.40;83.40;;;;;;5063726;28;20536;-64
2022/03/16 07:20:20;;;;;;;29.95;15.82;;;6.40;83.50;;;;;;5051998;28;20043;-62
2022/03/16 07:22:59;;;;;;;21.38;12.75;;;6.40;83.70;;;;;;5046259;28;20037;-63
2022/03/16 07:25:25;;;;;;;20.55;11.63;;;6.40;83.80;;;;;;5055843;28;20044;-62
2022/03/16 07:27:50;;;;;;;25.10;12.52;;;6.50;83.80;;;;;;5060712;28;20029;-63
2022/03/16 07:30:16;;;;;;;19.95;11.30;;;6.50;83.90;;;;;;5055261;28;20396;-64
2022/03/16 07:32:42;;;;;;;28.13;17.02;;;6.50;84.20;;;;;;5048457;28;20022;-62
2022/03/16 07:35:09;;;;;;;24.70;16.20;;;6.50;84.30;;;;;;5047390;28;20429;-63
2022/03/16 07:37:36;;;;;;;24.75;15.10;;;6.60;84.40;;;;;;5048513;28;20128;-65
2022/03/16 07:40:03;;;;;;;25.52;14.93;;;6.60;84.30;;;;;;5049480;28;20035;-65
2022/03/16 07:42:30;;;;;;;23.85;16.30;;;6.70;84.20;;;;;;5057506;28;20179;-65
2022/03/16 07:44:59;;;;;;;23.63;15.40;;;6.70;84.30;;;;;;5051769;28;20028;-64
2022/03/16 07:47:25;;;;;;;28.58;17.67;;;6.80;84.20;;;;;;5031755;28;20029;-64
2022/03/16 07:49:56;;;;;;;28.10;15.25;;;6.90;84.40;;;;;;5059301;28;20028;-63
2022/03/16 07:52:25;;;;;;;24.27;15.07;;;6.90;84.20;;;;;;5050207;28;20048;-64
2022/03/16 07:54:51;;;;;;;20.45;13.18;;;7.00;84.20;;;;;;5047695;28;20133;-64
2022/03/16 07:57:17;;;;;;;28.05;15.43;;;7.10;84.30;;;;;;5049956;28;20503;-65
2022/03/16 07:59:43;;;;;;;22.90;14.50;;;7.10;84.40;;;;;;5045965;28;20150;-65
2022/03/16 08:02:09;;;;;;;23.58;14.25;;;7.10;84.30;;;;;;5046360;28;20048;-65
2022/03/16 08:04:35;;;;;;;21.08;13.88;;;7.20;84.40;;;;;;5050108;28;20040;-65
2022/03/16 08:07:00;;;;;;;20.17;11.05;;;7.20;84.10;;;;;;5048505;28;20709;-64
2022/03/16 08:09:26;;;;;;;17.40;10.85;;;7.30;84.10;;;;;;5049180;28;20037;-64
2022/03/16 08:11:52;;;;;;;18.10;11.57;;;7.30;84.00;;;;;;5044190;28;20029;-65
2022/03/16 08:14:17;;;;;;;19.77;11.80;;;7.40;83.90;;;;;;5043555;28;20029;-65
2022/03/16 08:16:43;;;;;;;19.17;11.75;;;7.50;83.80;;;;;;5045999;28;20121;-65
2022/03/16 08:19:09;;;;;;;15.65;10.63;;;7.50;83.70;;;;;;5041554;28;20035;-64
2022/03/16 08:21:35;;;;;;;16.27;10.52;;;7.60;83.70;;;;;;5045123;28;20025;-64
2022/03/16 08:24:00;;;;;;;19.50;9.88;;;7.70;83.50;;;;;;5040491;28;20042;-64
2022/03/16 08:26:26;;;;;;;17.58;10.38;;;7.80;83.40;;;;;;5046310;28;20048;-65
2022/03/16 08:28:52;;;;;;;15.57;9.80;;;7.90;83.80;;;;;;5031509;28;20448;-64
2022/03/16 08:31:18;;;;;;;19.80;12.23;;;8.00;83.00;;;;;;5050084;28;20079;-64
2022/03/16 08:33:44;;;;;;;22.15;13.77;;;8.10;82.90;;;;;;5057105;28;20099;-63
2022/03/16 08:36:11;;;;;;;22.63;14.27;;;8.20;82.70;;;;;;5045889;28;20055;-64
2022/03/16 08:38:38;;;;;;;21.00;13.60;;;8.30;82.50;;;;;;5043589;28;20045;-62
2022/03/16 08:41:05;;;;;;;15.15;8.88;;;8.40;82.30;;;;;;5051005;28;20045;-62
2022/03/16 08:43:31;;;;;;;21.05;15.52;;;8.60;81.90;;;;;;5039393;28;20492;-64
2022/03/16 08:45:58;;;;;;;23.70;15.90;;;8.70;81.40;;;;;;5053960;28;20119;-63
2022/03/16 08:48:24;;;;;;;19.60;11.52;;;8.70;81.10;;;;;;5052684;28;20047;-63
2022/03/16 08:50:50;;;;;;;17.58;10.77;;;8.80;81.00;;;;;;5043097;28;20029;-64
2022/03/16 08:53:16;;;;;;;18.70;10.25;;;8.80;80.70;;;;;;5051193;28;20113;-63
2022/03/16 08:55:41;;;;;;;18.95;13.18;;;8.90;80.40;;;;;;5048043;28;20404;-63
2022/03/16 08:58:07;;;;;;;21.80;16.80;;;8.90;80.40;;;;;;5045480;28;20033;-63
2022/03/16 09:00:33;;;;;;;20.75;16.25;;;9.00;80.20;;;;;;5037659;28;20111;-63
2022/03/16 09:02:59;;;;;;;21.33;14.77;;;9.00;80.10;;;;;;5030753;28;20056;-63
2022/03/16 09:05:25;;;;;;;205.23;126.45;;;9.00;79.80;;;;;;5045088;28;20049;-63
2022/03/16 09:07:51;;;;;;;72.38;63.95;;;9.10;79.70;;;;;;5033819;28;20111;-64
2022/03/16 09:10:17;;;;;;;28.25;22.55;;;9.20;79.50;;;;;;5036364;28;20488;-63
2022/03/16 09:12:42;;;;;;;23.10;13.27;;;9.30;79.20;;;;;;5045023;28;20120;-63
2022/03/16 09:15:08;;;;;;;18.75;13.48;;;9.30;78.80;;;;;;5038023;28;20079;-63
2022/03/16 09:17:35;;;;;;;15.88;12.65;;;9.40;77.90;;;;;;5030793;28;20544;-63
2022/03/16 09:20:02;;;;;;;16.42;13.40;;;9.40;77.50;;;;;;5047366;28;20623;-64
2022/03/16 09:22:28;;;;;;;16.77;12.63;;;9.50;76.80;;;;;;5042177;28;20037;-62
2022/03/16 09:24:56;;;;;;;17.52;13.32;;;9.60;77.00;;;;;;5039587;28;20036;-63
2022/03/16 09:27:22;;;;;;;15.57;12.93;;;9.70;76.20;;;;;;5045387;28;20041;-63
2022/03/16 09:29:48;;;;;;;16.30;12.80;;;9.70;75.70;;;;;;5042158;28;20156;-63
2022/03/16 09:32:14;;;;;;;16.85;13.52;;;9.80;75.70;;;;;;5030578;28;20104;-63
2022/03/16 09:34:40;;;;;;;15.10;12.10;;;9.80;75.10;;;;;;5040077;28;20036;-63
2022/03/16 09:37:07;;;;;;;17.80;13.57;;;9.80;74.90;;;;;;5038243;28;20035;-63
2022/03/16 09:39:37;;;;;;;15.02;12.63;;;9.90;74.70;;;;;;5047863;28;20507;-63
2022/03/16 09:42:04;;;;;;;15.30;12.55;;;9.90;74.50;;;;;;5041618;28;20037;-63
2022/03/16 09:44:31;;;;;;;15.60;13.02;;;10.00;74.00;;;;;;5041714;28;20120;-63
2022/03/16 09:46:58;;;;;;;16.33;12.95;;;10.10;73.20;;;;;;5034736;28;20040;-63
2022/03/16 09:49:26;;;;;;;17.48;13.50;;;10.20;72.80;;;;;;5032809;28;20041;-63
2022/03/16 09:51:53;;;;;;;18.67;12.57;;;10.30;72.30;;;;;;5052357;28;20029;-63
2022/03/16 09:54:20;;;;;;;15.65;13.00;;;10.40;71.80;;;;;;5033106;28;20885;-63
2022/03/16 09:56:47;;;;;;;16.30;12.98;;;10.50;70.80;;;;;;5034070;28;20093;-64
2022/03/16 09:59:13;;;;;;;17.92;13.60;;;10.50;70.30;;;;;;5043801;28;20028;-63
2022/03/16 10:01:42;;;;;;;16.58;12.63;;;10.60;70.20;;;;;;5042327;28;20052;-64
2022/03/16 10:04:07;;;;;;;14.27;12.75;;;10.70;70.50;;;;;;5038489;28;20025;-64
2022/03/16 10:06:38;;;;;;;18.08;13.13;;;10.80;70.10;;;;;;5031790;28;20025;-64
2022/03/16 10:15:10;;;;;;;15.82;13.05;;;11.10;69.10;;;;;;5037914;28;20045;-64
2022/03/16 10:17:45;;;;;;;15.63;12.70;;;11.20;68.60;;;;;;5038043;28;20033;-64
2022/03/16 10:20:20;;;;;;;18.67;13.80;;;11.30;68.90;;;;;;5033853;28;20484;-63
2022/03/16 10:23:07;;;;;;;16.63;13.15;;;11.40;68.20;;;;;;5040827;28;20043;-64
2022/03/16 10:25:45;;;;;;;14.40;12.75;;;11.60;67.40;;;;;;5033901;28;20033;-64
2022/03/16 10:28:22;;;;;;;14.75;13.15;;;11.70;67.30;;;;;;5037873;28;20069;-64
2022/03/16 10:30:55;;;;;;;16.17;13.65;;;11.80;67.90;;;;;;5037180;28;20066;-64
2022/03/16 10:33:33;;;;;;;14.93;13.30;;;11.90;66.40;;;;;;5046643;28;20029;-64
2022/03/16 10:36:05;;;;;;;16.30;12.60;;;12.00;66.30;;;;;;5033282;28;20039;-65
2022/03/16 10:38:41;;;;;;;16.60;12.13;;;12.20;66.00;;;;;;5037314;28;20029;-64
2022/03/16 10:46:54;;;;;;;13.35;11.50;;;12.50;64.90;;;;;;5038553;28;20036;-62
2022/03/16 10:49:22;;;;;;;16.98;12.32;;;12.60;64.60;;;;;;5046877;28;20025;-62
2022/03/16 10:52:18;;;;;;;14.52;11.90;;;12.80;64.40;;;;;;5045248;28;20033;-63
2022/03/16 10:54:45;;;;;;;15.02;12.77;;;12.90;64.10;;;;;;5038096;28;20045;-64
2022/03/16 10:57:13;;;;;;;115.55;30.80;;;13.10;63.80;;;;;;5046019;28;20028;-63
2022/03/16 10:59:42;;;;;;;10.90;8.32;;;13.20;63.70;;;;;;5048604;28;20037;-63
2022/03/16 11:02:13;;;;;;;9.10;7.72;;;13.30;62.70;;;;;;5039042;28;20079;-63
2022/03/16 11:04:44;;;;;;;11.80;9.57;;;13.40;62.40;;;;;;5040492;28;20490;-63
2022/03/16 11:07:11;;;;;;;10.65;8.38;;;13.50;62.10;;;;;;5036247;28;20132;-64
2022/03/16 11:09:37;;;;;;;10.35;8.13;;;13.70;61.60;;;;;;5058941;28;20053;-64
2022/03/16 11:14:50;;;;;;;12.27;9.32;;;13.80;61.30;;;;;;5041202;28;20049;-64
2022/03/16 11:17:17;;;;;;;8.93;7.40;;;14.00;60.80;;;;;;5055651;28;20060;-63
2022/03/16 11:19:45;;;;;;;8.85;6.80;;;14.10;61.10;;;;;;5043539;28;20090;-64
2022/03/16 11:22:24;;;;;;;10.90;7.75;;;14.30;60.80;;;;;;5035795;28;20036;-64
2022/03/16 11:25:10;;;;;;;9.57;7.63;;;14.60;59.40;;;;;;5050399;28;20115;-63
2022/03/16 11:27:51;;;;;;;7.40;6.10;;;14.70;58.20;;;;;;5042767;28;20034;-64
2022/03/16 11:30:25;;;;;;;8.65;6.60;;;14.70;57.00;;;;;;5039545;28;20415;-64
2022/03/16 11:32:56;;;;;;;8.82;7.25;;;14.80;56.90;;;;;;5036592;28;20144;-64
2022/03/16 11:35:29;;;;;;;9.43;7.05;;;14.90;55.90;;;;;;5032803;28;20045;-64
2022/03/16 11:38:03;;;;;;;8.43;6.60;;;15.00;55.30;;;;;;5049157;28;20120;-64
2022/03/16 11:40:30;;;;;;;8.85;7.10;;;15.20;55.40;;;;;;5042898;28;20029;-64
2022/03/16 11:43:05;;;;;;;8.80;7.07;;;15.30;55.00;;;;;;5038776;28;20123;-64
2022/03/16 11:45:38;;;;;;;8.38;6.18;;;15.50;54.60;;;;;;5041104;28;20069;-64
2022/03/16 11:48:31;;;;;;;10.52;6.10;;;15.70;54.00;;;;;;5044403;28;20029;-64
2022/03/16 11:51:08;;;;;;;6.88;6.18;;;15.90;53.70;;;;;;5040711;28;20040;-64
2022/03/16 11:53:46;;;;;;;8.48;7.03;;;16.00;53.00;;;;;;5044710;28;20357;-64
2022/03/16 11:56:34;;;;;;;8.38;6.68;;;15.90;52.20;;;;;;5037738;28;20483;-64
2022/03/16 11:59:06;;;;;;;7.60;6.15;;;16.00;52.60;;;;;;5045749;28;20037;-64
2022/03/16 12:01:39;;;;;;;6.77;6.03;;;16.10;52.00;;;;;;5041537;28;20155;-64
2022/03/16 12:04:15;;;;;;;8.48;7.25;;;16.20;51.90;;;;;;5039617;28;20060;-64
2022/03/16 12:07:03;;;;;;;7.70;6.03;;;16.30;51.80;;;;;;5041791;28;20353;-64
2022/03/16 12:09:52;;;;;;;7.95;6.30;;;16.40;51.70;;;;;;5044702;28;20084;-64
2022/03/16 12:12:51;;;;;;;7.00;6.15;;;16.30;49.90;;;;;;5030501;28;20033;-64
2022/03/16 12:15:39;;;;;;;391.45;362.73;;;16.30;50.70;;;;;;5036763;28;20036;-64
2022/03/16 12:18:07;;;;;;;54.70;51.35;;;16.40;50.50;;;;;;5031728;28;20119;-64
2022/03/16 12:20:42;;;;;;;10.00;7.35;;;16.50;49.60;;;;;;5042723;28;20399;-64
2022/03/16 12:23:18;;;;;;;189.15;64.35;;;16.60;49.90;;;;;;5050180;28;20115;-64
2022/03/16 12:25:47;;;;;;;175.48;67.00;;;16.70;48.90;;;;;;5052193;28;20144;-64
2022/03/16 12:31:10;;;;;;;10.85;8.30;;;16.70;49.80;;;;;;5046457;28;20570;-64
2022/03/16 12:33:42;;;;;;;9.70;8.70;;;16.70;50.10;;;;;;5033990;28;20029;-63
2022/03/16 12:36:32;;;;;;;9.23;8.25;;;16.90;49.70;;;;;;5033052;28;20022;-63
2022/03/16 12:39:04;;;;;;;12.70;9.98;;;16.90;49.40;;;;;;5050111;28;20094;-64
2022/03/16 12:44:18;;;;;;;12.73;8.43;;;17.00;48.60;;;;;;5035571;28;20090;-64
2022/03/16 12:47:00;;;;;;;10.40;8.05;;;17.00;49.20;;;;;;5039303;28;20885;-63
2022/03/16 12:49:26;;;;;;;10.35;7.88;;;17.10;49.10;;;;;;5030978;28;20507;-64
2022/03/16 12:51:55;;;;;;;9.77;8.00;;;17.20;48.90;;;;;;5049969;28;20108;-63
2022/03/16 12:54:23;;;;;;;9.90;8.40;;;17.10;49.10;;;;;;5051140;28;20357;-63
2022/03/16 12:56:50;;;;;;;8.90;8.02;;;17.00;48.40;;;;;;5049649;28;20835;-64
2022/03/16 12:59:23;;;;;;;13.23;8.98;;;16.80;48.70;;;;;;5035274;28;20563;-63
2022/03/16 13:01:50;;;;;;;9.13;8.23;;;16.70;49.40;;;;;;5036578;28;20076;-63